createdAt,value
2019-01-26T00:00:52.376Z,-4.83
2019-01-26T00:03:23.134Z,-4.83
2019-01-26T00:05:54.083Z,-4.81
2019-01-26T00:08:26.254Z,-4.79
2019-01-26T00:10:57.834Z,-4.75
2019-01-26T00:13:29.898Z,-4.75
2019-01-26T00:16:00.813Z,-4.71
2019-01-26T00:18:31.423Z,-4.70
2019-01-26T00:21:02.032Z,-4.72
2019-01-26T00:23:32.718Z,-4.74
2019-01-26T00:26:03.257Z,-4.72
2019-01-26T00:28:33.934Z,-4.71
2019-01-26T00:31:05.513Z,-4.71
2019-01-26T00:33:37.020Z,-4.68
2019-01-26T00:36:08.210Z,-4.72
2019-01-26T00:38:39.297Z,-4.70
2019-01-26T00:41:10.078Z,-4.71
2019-01-26T00:43:41.229Z,-4.70
2019-01-26T00:46:12.018Z,-4.74
2019-01-26T00:48:43.169Z,-4.72
2019-01-26T00:51:17.245Z,-4.73
2019-01-26T00:53:46.618Z,-4.71
2019-01-26T00:56:18.331Z,-4.68
2019-01-26T00:58:49.839Z,-4.66
2019-01-26T01:01:21.838Z,-4.62
2019-01-26T01:03:52.980Z,-4.60
2019-01-26T01:06:26.016Z,-4.65
2019-01-26T01:08:56.069Z,-4.74
2019-01-26T01:11:26.603Z,-4.89
2019-01-26T01:13:58.297Z,-4.96
2019-01-26T01:16:35.834Z,-4.96
2019-01-26T01:19:02.969Z,-5.07
2019-01-26T01:21:33.667Z,-5.11
2019-01-26T01:24:04.467Z,-5.12
2019-01-26T01:26:35.179Z,-5.16
2019-01-26T01:29:05.919Z,-5.22
2019-01-26T01:31:36.673Z,-5.22
2019-01-26T01:34:07.318Z,-5.22
2019-01-26T01:36:37.948Z,-5.23
2019-01-26T01:39:11.297Z,-5.29
2019-01-26T01:41:42.919Z,-5.26
2019-01-26T01:44:14.743Z,-5.28
2019-01-26T01:46:45.398Z,-5.28
2019-01-26T01:49:16.040Z,-5.27
2019-01-26T01:51:46.723Z,-5.29
2019-01-26T01:54:17.285Z,-5.26
2019-01-26T01:56:47.827Z,-5.28
2019-01-26T01:59:18.414Z,-5.29
2019-01-26T02:01:48.939Z,-5.25
2019-01-26T02:04:19.508Z,-5.23
2019-01-26T02:06:50.129Z,-5.20
2019-01-26T02:09:20.812Z,-5.17
2019-01-26T02:11:51.539Z,-5.09
2019-01-26T02:14:22.138Z,-5.07
2019-01-26T02:16:52.753Z,-5.02
2019-01-26T02:19:23.377Z,-4.94
2019-01-26T02:21:54.005Z,-4.90
2019-01-26T02:24:24.650Z,-4.89
2019-01-26T02:26:55.330Z,-4.82
2019-01-26T02:29:25.878Z,-4.82
2019-01-26T02:31:56.534Z,-4.80
2019-01-26T02:34:26.979Z,-4.72
2019-01-26T02:36:57.729Z,-4.62
2019-01-26T02:39:28.227Z,-4.54
2019-01-26T02:41:58.803Z,-4.53
2019-01-26T02:44:29.361Z,-4.44
2019-01-26T02:46:59.980Z,-4.45
2019-01-26T02:49:30.527Z,-4.43
2019-01-26T02:52:01.294Z,-4.42
2019-01-26T02:54:31.883Z,-4.41
2019-01-26T02:57:02.478Z,-4.39
2019-01-26T02:59:33.174Z,-4.40
2019-01-26T03:02:03.901Z,-4.38
2019-01-26T03:04:34.717Z,-4.38
2019-01-26T03:07:05.687Z,-4.42
2019-01-26T03:09:36.387Z,-4.42
2019-01-26T03:12:08.459Z,-4.44
2019-01-26T03:14:39.003Z,-4.45
2019-01-26T03:17:09.649Z,-4.46
2019-01-26T03:19:40.539Z,-4.48
2019-01-26T03:22:11.944Z,-4.49
2019-01-26T03:24:42.609Z,-4.43
2019-01-26T03:27:13.340Z,-4.38
2019-01-26T03:29:43.986Z,-4.37
2019-01-26T03:32:14.738Z,-4.34
2019-01-26T03:34:45.362Z,-4.32
2019-01-26T03:37:16.074Z,-4.30
2019-01-26T03:39:46.684Z,-4.29
2019-01-26T03:42:17.313Z,-4.26
2019-01-26T03:44:47.966Z,-4.23
2019-01-26T03:47:18.510Z,-4.22
2019-01-26T03:49:49.224Z,-4.18
2019-01-26T03:52:19.930Z,-4.15
2019-01-26T03:54:50.668Z,-4.16
2019-01-26T03:57:21.340Z,-4.15
2019-01-26T03:59:52.098Z,-4.14
2019-01-26T04:02:23.949Z,-4.14
2019-01-26T04:04:54.680Z,-4.14
2019-01-26T04:07:25.419Z,-4.12
2019-01-26T04:09:56.098Z,-4.13
2019-01-26T04:12:26.904Z,-4.08
2019-01-26T04:14:57.574Z,-4.16
2019-01-26T04:17:28.424Z,-4.19
2019-01-26T04:19:59.080Z,-4.19
2019-01-26T04:22:29.784Z,-4.22
2019-01-26T04:25:00.440Z,-4.25
2019-01-26T04:27:31.129Z,-4.26
2019-01-26T04:30:01.870Z,-4.27
2019-01-26T04:32:32.514Z,-4.27
2019-01-26T04:35:03.359Z,-4.26
2019-01-26T04:37:34.052Z,-4.29
2019-01-26T04:40:05.831Z,-4.29
2019-01-26T04:42:36.517Z,-4.26
2019-01-26T04:45:10.319Z,-4.27
2019-01-26T04:47:41.045Z,-4.30
2019-01-26T04:50:14.250Z,-4.28
2019-01-26T04:52:45.043Z,-4.28
2019-01-26T04:55:18.697Z,-4.23
2019-01-26T04:57:49.769Z,-4.21
2019-01-26T05:00:24.144Z,-4.19
2019-01-26T05:02:54.864Z,-4.20
2019-01-26T05:05:25.709Z,-4.19
2019-01-26T05:07:56.394Z,-4.17
2019-01-26T05:10:27.020Z,-4.14
2019-01-26T05:12:57.768Z,-4.12
2019-01-26T05:15:28.419Z,-4.10
2019-01-26T05:17:59.113Z,-4.09
2019-01-26T05:20:29.909Z,-4.09
2019-01-26T05:23:00.605Z,-4.08
2019-01-26T05:25:31.221Z,-4.09
2019-01-26T05:28:01.830Z,-4.15
2019-01-26T05:30:32.388Z,-4.20
2019-01-26T05:33:03.078Z,-4.27
2019-01-26T05:35:33.626Z,-4.33
2019-01-26T05:38:04.361Z,-4.35
2019-01-26T05:40:35.049Z,-4.39
2019-01-26T05:43:06.249Z,-4.41
2019-01-26T05:45:36.932Z,-4.41
2019-01-26T05:48:07.994Z,-4.41
2019-01-26T05:50:38.719Z,-4.40
2019-01-26T05:53:09.324Z,-4.36
2019-01-26T05:55:39.921Z,-4.37
2019-01-26T05:58:10.695Z,-4.32
2019-01-26T06:00:41.731Z,-4.29
2019-01-26T06:03:12.466Z,-4.29
2019-01-26T06:05:43.060Z,-4.27
2019-01-26T06:08:15.470Z,-4.26
2019-01-26T06:10:46.070Z,-4.24
2019-01-26T06:13:16.691Z,-4.20
2019-01-26T06:15:47.421Z,-4.19
2019-01-26T06:18:18.214Z,-4.15
2019-01-26T06:20:48.880Z,-4.14
2019-01-26T06:23:19.493Z,-4.12
2019-01-26T06:25:50.120Z,-4.10
2019-01-26T06:28:20.854Z,-4.08
2019-01-26T06:30:51.559Z,-4.05
2019-01-26T06:33:22.345Z,-4.03
2019-01-26T06:35:56.971Z,-4.02
2019-01-26T06:38:28.129Z,-4.01
2019-01-26T06:40:59.057Z,-3.95
2019-01-26T06:43:29.769Z,-3.93
2019-01-26T06:46:00.321Z,-3.91
2019-01-26T06:48:30.895Z,-3.88
2019-01-26T06:51:01.693Z,-3.84
2019-01-26T06:53:32.363Z,-3.79
2019-01-26T06:56:03.120Z,-3.72
2019-01-26T06:58:33.895Z,-3.71
2019-01-26T07:01:04.635Z,-3.71
2019-01-26T07:03:35.937Z,-3.72
2019-01-26T07:06:17.220Z,-3.78
2019-01-26T07:08:47.922Z,-3.76
2019-01-26T07:11:40.005Z,-3.81
2019-01-26T07:14:11.024Z,-3.84
2019-01-26T07:16:41.799Z,-3.85
2019-01-26T07:19:12.391Z,-3.86
2019-01-26T07:21:43.129Z,-3.91
2019-01-26T07:24:13.719Z,-3.87
2019-01-26T07:26:44.479Z,-3.86
2019-01-26T07:29:15.219Z,-3.85
2019-01-26T07:31:45.921Z,-3.85
2019-01-26T07:34:16.998Z,-3.88
2019-01-26T07:36:47.693Z,-3.86
2019-01-26T07:39:18.379Z,-3.87
2019-01-26T07:41:49.096Z,-3.86
2019-01-26T07:44:19.759Z,-3.85
2019-01-26T07:46:50.697Z,-3.88
2019-01-26T07:49:22.145Z,-3.88
2019-01-26T07:51:52.959Z,-3.89
2019-01-26T07:54:23.814Z,-3.82
2019-01-26T07:56:54.695Z,-3.77
2019-01-26T07:59:25.368Z,-3.79
2019-01-26T08:01:56.049Z,-3.70
2019-01-26T08:04:26.715Z,-3.73
2019-01-26T08:06:57.288Z,-3.69
2019-01-26T08:09:28.136Z,-3.61
2019-01-26T08:11:58.759Z,-3.57
2019-01-26T08:14:29.304Z,-3.55
2019-01-26T08:16:59.969Z,-3.46
2019-01-26T08:19:30.625Z,-3.48
2019-01-26T08:22:01.289Z,-3.39
2019-01-26T08:24:31.921Z,-3.47
2019-01-26T08:27:02.655Z,-3.49
2019-01-26T08:29:33.273Z,-3.45
2019-01-26T08:32:03.945Z,-3.41
2019-01-26T08:34:34.628Z,-3.39
2019-01-26T08:37:05.794Z,-3.33
2019-01-26T08:39:36.418Z,-3.36
2019-01-26T08:42:07.368Z,-3.35
2019-01-26T08:44:38.069Z,-3.31
2019-01-26T08:47:08.674Z,-3.25
2019-01-26T08:49:39.348Z,-3.29
2019-01-26T08:52:10.100Z,-3.26
2019-01-26T08:54:40.584Z,-3.23
2019-01-26T08:57:11.373Z,-3.19
2019-01-26T08:59:42.119Z,-3.15
2019-01-26T09:02:30.267Z,-3.14
2019-01-26T09:05:01.228Z,-3.10
2019-01-26T09:07:31.905Z,-3.01
2019-01-26T09:10:02.871Z,-2.98
2019-01-26T09:12:33.508Z,-2.92
2019-01-26T09:15:04.375Z,-2.79
2019-01-26T09:17:35.148Z,-2.79
2019-01-26T09:20:11.727Z,-2.75
2019-01-26T09:22:42.481Z,-2.78
2019-01-26T09:25:13.278Z,-2.74
2019-01-26T09:27:44.349Z,-2.68
2019-01-26T09:30:15.878Z,-2.60
2019-01-26T09:32:46.568Z,-2.47
2019-01-26T09:35:17.809Z,-2.31
2019-01-26T09:37:51.769Z,-2.15
2019-01-26T09:40:22.814Z,-2.20
2019-01-26T09:42:53.704Z,-2.19
2019-01-26T09:45:24.540Z,-2.10
2019-01-26T09:47:55.899Z,-2.18
2019-01-26T09:50:26.664Z,-1.93
2019-01-26T09:52:57.620Z,-1.96
2019-01-26T09:55:28.235Z,-2.00
2019-01-26T09:57:58.892Z,-2.01
2019-01-26T10:00:29.719Z,-2.09
2019-01-26T10:03:00.428Z,-1.93
2019-01-26T10:05:31.550Z,-1.93
2019-01-26T10:08:02.214Z,-1.78
2019-01-26T10:10:33.190Z,-1.77
2019-01-26T10:13:03.984Z,-1.59
2019-01-26T10:15:34.840Z,-1.73
2019-01-26T10:18:06.240Z,-1.54
2019-01-26T10:20:38.585Z,-1.49
2019-01-26T10:23:10.633Z,-1.41
2019-01-26T10:25:48.413Z,-1.55
2019-01-26T10:28:13.795Z,-1.41
2019-01-26T10:30:48.256Z,-1.46
2019-01-26T10:33:19.001Z,-1.64
2019-01-26T10:36:08.521Z,-1.55
2019-01-26T10:38:44.204Z,-1.62
2019-01-26T10:41:26.701Z,-1.43
2019-01-26T10:43:57.493Z,-1.25
2019-01-26T10:46:28.337Z,-1.35
2019-01-26T10:49:00.781Z,-1.26
2019-01-26T10:51:31.409Z,-1.30
2019-01-26T10:54:02.295Z,-1.19
2019-01-26T10:56:32.859Z,-1.09
2019-01-26T10:59:03.710Z,-0.94
2019-01-26T11:01:34.559Z,-1.00
2019-01-26T11:04:05.324Z,-0.68
2019-01-26T11:06:35.936Z,-1.05
2019-01-26T11:09:11.608Z,-0.64
2019-01-26T11:11:42.610Z,-0.92
2019-01-26T11:14:13.387Z,-0.93
2019-01-26T11:16:44.098Z,-1.04
2019-01-26T11:19:14.822Z,-1.13
2019-01-26T11:21:46.214Z,-1.14
2019-01-26T11:24:16.894Z,-0.86
2019-01-26T11:26:49.471Z,-1.17
2019-01-26T11:29:20.070Z,-1.15
2019-01-26T11:31:50.828Z,-0.92
2019-01-26T11:34:21.594Z,-0.79
2019-01-26T11:36:52.365Z,-0.88
2019-01-26T11:39:23.146Z,-0.76
2019-01-26T11:41:53.949Z,-0.50
2019-01-26T11:44:25.358Z,-0.46
2019-01-26T11:47:00.114Z,-0.44
2019-01-26T11:49:30.885Z,-0.27
2019-01-26T11:52:09.825Z,-0.52
2019-01-26T11:55:01.338Z,-0.27
2019-01-26T11:57:39.449Z,-0.23
2019-01-26T12:00:38.505Z,-0.42
2019-01-26T12:03:28.119Z,-0.76
2019-01-26T12:06:03.810Z,-0.52
2019-01-26T12:08:34.404Z,-0.54
2019-01-26T12:11:05.145Z,-0.87
2019-01-26T12:13:35.809Z,-0.90
2019-01-26T12:16:06.602Z,-0.65
2019-01-26T12:18:37.294Z,-0.65
2019-01-26T12:21:07.964Z,-0.74
2019-01-26T12:23:38.618Z,-0.51
2019-01-26T12:26:09.388Z,-0.50
2019-01-26T12:28:40.039Z,-0.60
2019-01-26T12:31:10.594Z,-0.53
2019-01-26T12:33:41.484Z,-0.37
2019-01-26T12:36:12.469Z,-0.55
2019-01-26T12:38:43.098Z,-0.63
2019-01-26T12:41:13.889Z,-0.68
2019-01-26T12:43:44.504Z,-0.44
2019-01-26T12:46:15.060Z,-0.27
2019-01-26T12:48:45.732Z,-0.20
2019-01-26T12:51:16.257Z,-0.31
2019-01-26T12:53:46.879Z,-0.18
2019-01-26T12:56:17.599Z,-0.30
2019-01-26T12:58:48.386Z,-0.18
2019-01-26T13:01:19.004Z,-0.22
2019-01-26T13:03:49.659Z,-0.04
2019-01-26T13:06:20.450Z,0.05
2019-01-26T13:08:51.114Z,-0.44
2019-01-26T13:11:27.028Z,-0.15
2019-01-26T13:13:58.038Z,-0.05
2019-01-26T13:16:28.785Z,0.00
2019-01-26T13:18:59.515Z,-0.36
2019-01-26T13:21:30.230Z,-0.12
2019-01-26T13:24:00.953Z,-0.02
2019-01-26T13:26:31.939Z,0.03
2019-01-26T13:29:02.480Z,0.07
2019-01-26T13:31:34.190Z,-0.13
2019-01-26T13:34:05.480Z,0.03
2019-01-26T13:36:36.188Z,0.06
2019-01-26T13:39:10.559Z,-0.34
2019-01-26T13:41:41.286Z,-0.30
2019-01-26T13:44:12.080Z,-0.20
2019-01-26T13:46:42.839Z,-0.06
2019-01-26T13:49:13.422Z,0.02
2019-01-26T13:51:44.106Z,0.11
2019-01-26T13:54:14.830Z,0.14
2019-01-26T13:56:45.535Z,-0.16
2019-01-26T13:59:16.056Z,0.01
2019-01-26T14:01:46.725Z,0.07
2019-01-26T14:04:17.438Z,-0.11
2019-01-26T14:06:48.259Z,0.12
2019-01-26T14:09:19.054Z,0.21
2019-01-26T14:11:49.930Z,0.27
2019-01-26T14:14:20.831Z,0.25
2019-01-26T14:16:51.590Z,0.24
2019-01-26T14:19:22.375Z,0.21
2019-01-26T14:21:52.815Z,0.17
2019-01-26T14:24:23.460Z,0.20
2019-01-26T14:26:54.158Z,0.22
2019-01-26T14:29:24.765Z,0.24
2019-01-26T14:31:55.317Z,0.20
2019-01-26T14:34:25.879Z,0.00
2019-01-26T14:36:56.500Z,0.03
2019-01-26T14:39:27.286Z,0.04
2019-01-26T14:41:57.957Z,0.05
2019-01-26T14:44:29.410Z,0.08
2019-01-26T14:47:00.100Z,0.06
2019-01-26T14:49:30.806Z,0.07
2019-01-26T14:52:01.498Z,0.07
2019-01-26T14:54:32.069Z,0.10
2019-01-26T14:57:03.105Z,0.07
2019-01-26T14:59:33.694Z,0.03
2019-01-26T15:02:04.529Z,0.00
2019-01-26T15:04:35.616Z,0.00
2019-01-26T15:07:07.029Z,0.02
2019-01-26T15:09:37.755Z,-0.06
2019-01-26T15:12:08.504Z,0.00
2019-01-26T15:14:39.219Z,0.05
2019-01-26T15:17:09.925Z,0.03
2019-01-26T15:19:40.515Z,0.07
2019-01-26T15:22:11.270Z,-0.10
2019-01-26T15:24:41.920Z,-0.16
2019-01-26T15:27:12.540Z,-0.04
2019-01-26T15:29:43.195Z,0.02
2019-01-26T15:32:16.208Z,0.03
2019-01-26T15:34:46.923Z,0.03
2019-01-26T15:37:17.619Z,0.03
2019-01-26T15:39:48.731Z,0.03
2019-01-26T15:42:19.453Z,0.02
2019-01-26T15:44:50.054Z,0.03
2019-01-26T15:47:20.539Z,0.03
2019-01-26T15:49:51.085Z,0.01
2019-01-26T15:52:23.290Z,0.02
2019-01-26T15:54:53.945Z,0.03
2019-01-26T15:57:24.586Z,0.00
2019-01-26T15:59:55.578Z,-0.05
2019-01-26T16:02:26.513Z,-0.06
2019-01-26T16:04:57.177Z,0.02
2019-01-26T16:07:27.975Z,-0.04
2019-01-26T16:09:58.519Z,0.05
2019-01-26T16:12:29.135Z,0.08
2019-01-26T16:14:59.690Z,0.03
2019-01-26T16:17:30.359Z,-0.05
2019-01-26T16:20:05.735Z,-0.01
2019-01-26T16:22:36.239Z,0.03
2019-01-26T16:25:08.905Z,-0.04
2019-01-26T16:27:39.625Z,0.00
2019-01-26T16:30:16.764Z,0.07
2019-01-26T16:32:47.617Z,0.05
2019-01-26T16:35:18.328Z,-0.03
2019-01-26T16:37:49.589Z,-0.14
2019-01-26T16:40:29.391Z,-0.19
2019-01-26T16:43:00.032Z,-0.16
2019-01-26T16:45:33.861Z,-0.13
2019-01-26T16:48:05.820Z,-0.04
2019-01-26T16:50:36.579Z,-0.06
2019-01-26T16:53:07.248Z,0.02
2019-01-26T16:55:38.185Z,0.06
2019-01-26T16:58:08.989Z,0.09
2019-01-26T17:00:51.966Z,0.16
2019-01-26T17:03:24.228Z,0.15
2019-01-26T17:05:56.088Z,0.15
2019-01-26T17:08:26.869Z,0.15
2019-01-26T17:11:00.975Z,0.17
2019-01-26T17:13:31.820Z,0.18
2019-01-26T17:16:03.849Z,0.21
2019-01-26T17:18:36.738Z,0.20
2019-01-26T17:21:07.509Z,0.20
2019-01-26T17:23:38.398Z,0.21
2019-01-26T17:26:09.204Z,0.24
2019-01-26T17:28:40.854Z,0.25
2019-01-26T17:31:11.629Z,0.29
2019-01-26T17:33:42.349Z,0.29
2019-01-26T17:36:13.025Z,0.32
2019-01-26T17:38:45.064Z,0.29
2019-01-26T17:41:15.864Z,0.27
2019-01-26T17:43:50.149Z,0.26
2019-01-26T17:46:23.373Z,0.14
2019-01-26T17:48:54.394Z,0.06
2019-01-26T17:51:26.244Z,0.10
2019-01-26T17:53:57.814Z,0.14
2019-01-26T17:56:28.493Z,0.22
2019-01-26T17:58:59.319Z,0.28
2019-01-26T18:01:34.334Z,0.33
2019-01-26T18:04:10.124Z,0.32
2019-01-26T18:06:40.864Z,0.24
2019-01-26T18:09:11.818Z,0.15
2019-01-26T18:11:45.113Z,0.11
2019-01-26T18:14:16.365Z,0.15
2019-01-26T18:16:47.119Z,0.11
2019-01-26T18:19:20.275Z,0.12
2019-01-26T18:21:51.165Z,0.20
2019-01-26T18:24:46.302Z,0.25
2019-01-26T18:27:18.079Z,0.30
2019-01-26T18:29:51.365Z,0.37
2019-01-26T18:32:24.990Z,0.40
2019-01-26T18:34:59.895Z,0.42
2019-01-26T18:37:33.460Z,0.45
2019-01-26T18:40:06.930Z,0.46
2019-01-26T18:42:37.707Z,0.46
2019-01-26T18:45:11.808Z,0.42
2019-01-26T18:47:42.645Z,0.39
2019-01-26T18:50:24.603Z,0.43
2019-01-26T18:52:55.484Z,0.47
2019-01-26T18:55:29.246Z,0.51
2019-01-26T18:58:00.034Z,0.54
2019-01-26T19:00:39.988Z,0.52
2019-01-26T19:04:00.275Z,0.49
2019-01-26T19:06:31.507Z,0.43
2019-01-26T19:09:02.104Z,0.38
2019-01-26T19:11:36.863Z,0.35
2019-01-26T19:14:12.188Z,0.35
2019-01-26T19:16:45.309Z,0.32
2019-01-26T19:19:20.984Z,0.32
2019-01-26T19:21:54.604Z,0.33
2019-01-26T19:24:29.589Z,0.31
2019-01-26T19:27:00.870Z,0.32
2019-01-26T19:29:32.531Z,0.31
2019-01-26T19:32:05.428Z,0.28
2019-01-26T19:34:38.895Z,0.31
2019-01-26T19:37:15.738Z,0.32
2019-01-26T19:39:48.265Z,0.34
2019-01-26T19:42:27.925Z,0.40
2019-01-26T19:45:01.125Z,0.36
2019-01-26T19:47:34.044Z,0.37
2019-01-26T19:50:06.968Z,0.40
2019-01-26T19:52:40.105Z,0.35
2019-01-26T19:55:23.151Z,0.35
2019-01-26T19:58:00.414Z,0.30
2019-01-26T20:00:34.314Z,0.30
2019-01-26T20:03:06.138Z,0.31
2019-01-26T20:05:37.254Z,0.28
2019-01-26T20:08:10.204Z,0.30
2019-01-26T20:10:48.673Z,0.32
2019-01-26T20:13:20.860Z,0.32
2019-01-26T20:15:53.858Z,0.31
2019-01-26T20:18:34.265Z,0.31
2019-01-26T20:21:08.951Z,0.31
2019-01-26T20:23:49.735Z,0.33
2019-01-26T20:26:22.408Z,0.35
2019-01-26T20:28:56.898Z,0.30
2019-01-26T20:31:27.712Z,0.29
2019-01-26T20:33:59.639Z,0.31
2019-01-26T20:36:40.705Z,0.34
2019-01-26T20:39:11.633Z,0.36
2019-01-26T20:41:43.804Z,0.37
2019-01-26T20:44:17.789Z,0.44
2019-01-26T20:46:55.606Z,0.46
2019-01-26T20:49:27.580Z,0.48
2019-01-26T20:51:59.739Z,0.45
2019-01-26T20:54:30.628Z,0.39
2019-01-26T20:57:06.375Z,0.42
2019-01-26T20:59:41.155Z,0.39
2019-01-26T21:02:15.640Z,0.38
2019-01-26T21:04:51.348Z,0.40
2019-01-26T21:07:23.594Z,0.38
2019-01-26T21:09:54.900Z,0.35
2019-01-26T21:12:32.609Z,0.36
2019-01-26T21:15:08.756Z,0.33
2019-01-26T21:17:44.484Z,0.32
2019-01-26T21:20:21.754Z,0.32
2019-01-26T21:22:58.381Z,0.33
2019-01-26T21:25:32.980Z,0.32
2019-01-26T21:28:03.933Z,0.34
2019-01-26T21:30:34.574Z,0.35
2019-01-26T21:33:08.502Z,0.34
2019-01-26T21:35:41.569Z,0.32
2019-01-26T21:38:12.594Z,0.30
2019-01-26T21:40:48.743Z,0.32
2019-01-26T21:43:26.047Z,0.30
2019-01-26T21:45:57.995Z,0.32
2019-01-26T21:48:31.825Z,0.33
2019-01-26T21:51:05.020Z,0.32
2019-01-26T21:53:39.061Z,0.29
2019-01-26T21:56:09.905Z,0.31
2019-01-26T21:58:45.749Z,0.31
2019-01-26T22:01:20.089Z,0.33
2019-01-26T22:03:50.805Z,0.32
2019-01-26T22:06:21.510Z,0.31
2019-01-26T22:08:55.504Z,0.34
2019-01-26T22:11:26.033Z,0.33
2019-01-26T22:13:56.699Z,0.33
2019-01-26T22:16:28.754Z,0.30
2019-01-26T22:18:59.579Z,0.32
2019-01-26T22:21:30.404Z,0.32
2019-01-26T22:24:00.954Z,0.33
2019-01-26T22:26:31.841Z,0.32
2019-01-26T22:29:02.757Z,0.33
2019-01-26T22:31:33.618Z,0.34
2019-01-26T22:34:07.148Z,0.33
2019-01-26T22:36:40.771Z,0.34
2019-01-26T22:39:11.646Z,0.33
2019-01-26T22:41:42.326Z,0.32
2019-01-26T22:44:12.939Z,0.30
2019-01-26T22:46:43.810Z,0.30
2019-01-26T22:49:14.549Z,0.30
2019-01-26T22:51:44.974Z,0.28
2019-01-26T22:54:15.821Z,0.30
2019-01-26T22:56:46.449Z,0.32
2019-01-26T22:59:17.132Z,0.32
2019-01-26T23:01:48.611Z,0.31
2019-01-26T23:04:50.415Z,0.35
2019-01-26T23:07:44.692Z,0.34
2019-01-26T23:10:57.356Z,0.35
2019-01-26T23:13:52.529Z,0.36
2019-01-26T23:17:14.392Z,0.36
2019-01-26T23:20:12.381Z,0.35
2019-01-26T23:23:27.821Z,0.34
2019-01-26T23:26:47.392Z,0.35
2019-01-26T23:29:50.195Z,0.36
2019-01-26T23:32:20.969Z,0.34
2019-01-26T23:34:51.746Z,0.33
2019-01-26T23:37:22.549Z,0.35
2019-01-26T23:39:53.265Z,0.36
2019-01-26T23:42:24.224Z,0.32
2019-01-26T23:44:55.185Z,0.30
2019-01-26T23:47:25.910Z,0.29
2019-01-26T23:49:56.731Z,0.29
2019-01-26T23:52:27.622Z,0.28
2019-01-26T23:54:58.279Z,0.32
2019-01-26T23:57:29.684Z,0.32
